Airfield :
LOGIN :

Register | Disclaimer

   EN    FR    IT 

 










Legend :    VFR   Marginal VFR   IFR   Intensive IFR   Very Intensive IFR
Visi :
Ceiling :
>= 8 km
>= 3000ft
5 to 8 km
1000 to 3000 ft
1500m to 5 km
500 to 1000 ft
800 to 1500m
200 to 500 ft
< 800m
< 200 ft
Symbols :   Thunderstorms  Fog  Heavy snow  Heavy precipitations  Wind > 20 kt
SIGMETs :     Misc.  Thunderstorms  Icing  Turbulence  Mountain Waves  Volcanic Ashes







- Airport Elevation : 1058 ft
- IATA code : SCN


EDDR - Saarbrücken

CURRENT METAR :
  • 220920Z 24009KT 200V270 9999 FEW022 BKN280 14/07 Q1024 NOSIG

EXPIRED METARs :
  • 220850Z 26011KT 9999 FEW018 SCT220 BKN280 12/07 Q1024 NOSIG
  • 220820Z 24007KT 9999 FEW030 BKN220 BKN280 12/07 Q1024 NOSIG
  • 220750Z 23009KT CAVOK 11/06 Q1023 NOSIG
  • 220720Z 23007KT CAVOK 10/06 Q1023 NOSIG
  • 220650Z 25005KT 9999 FEW030 SCT220 BKN280 10/06 Q1024 NOSIG

TAF TAF EDDR
Valid from the 22 at 06:00 until the 23 at 06:00 UTC


220500Z 2206/2306 25007KT CAVOK
TEMPO 2212/2216 25012KT
TEMPO 2300/2306 RA
No reported NOTAMs for that airfield.



MET'MAP, your aeronautical weather chart ! - Copyright ORBIFLY December 2007 - Disclaimer

ORBIFLY MET'MAP TEAM :

Programming & Development : Alexandra Zaïnal
Concept & Development : Baudouin d'Aumeries
Co-Development & Prog : Marc-Olivier Méhu
Technical & hardware support : Manuel Goepfert

Contact : metmap@orbifly.com




SOURCES & CREDITS :

   NOAA